My Little Violet — ZCPE7 — position and weather

sailwx.info

Track history (hours):
 
Tides and Currents Weather Stations Pressure Air Temp Water Temp Dewpoint Dewpoint Depression Visibility Wind Speed Wind Dir Waves Ship Positions

My Little Violet

Last reported at 2016-May-03 00:33 UTC. Time now 2016-May-30 18:26 UTC.
Position N 31°02' E 032°19'.
Warning: this ship's position is 27 days out of date.

Length 45 m; draft 2.9 m.

Type: Pleasure craft. MMSI: 319496000.

Date/timePositionNaut miles runAvg speedWind from/ knotsBaromVisibWave heightAir tempDewpointWater temp
2016-May-03 00:33N 31°02' E 032°19'14 3.4
2016-May-02 20:29N 31°15' E 032°19'6 2.0
2016-May-02 17:28N 31°21' E 032°21'3410.7
2016-May-02 14:18N 31°47' E 031°55'1213.1
2016-May-02 13:21N 31°55' E 031°43'50412.3
2016-Apr-30 20:25N 37°22' E 023°58'1112.4
2016-Apr-30 19:33N 37°30' E 023°49'1212.5
2016-Apr-30 18:34N 37°41' E 023°41'1211.9
2016-Apr-30 17:33N 37°52' E 023°38'4 3.9
2016-Apr-30 16:34N 37°56' E 023°39'0 0.0
2016-Apr-30 15:34N 37°56' E 023°39'0 0.0
2016-Apr-30 14:34N 37°56' E 023°39'0 0.0
2016-Apr-30 13:33N 37°56' E 023°39'0 0.0
2016-Apr-30 12:33N 37°56' E 023°39'0 0.0
2016-Apr-30 11:34N 37°56' E 023°39'0 0.0
2016-Apr-30 10:33N 37°56' E 023°39'0 0.0
2016-Apr-30 09:33N 37°56' E 023°39'0 0.0
2016-Apr-30 08:34N 37°56' E 023°39'0 0.0
2016-Apr-30 07:33N 37°56' E 023°39'0 0.0
2016-Apr-30 06:34N 37°56' E 023°39'0 0.0
2016-Apr-30 05:33N 37°56' E 023°39'0 0.0
2016-Apr-30 04:33N 37°56' E 023°39'0 0.0
2016-Apr-30 03:33N 37°56' E 023°39'0 0.0
2016-Apr-30 02:34N 37°56' E 023°39'0 0.0
2016-Apr-30 01:33N 37°56' E 023°39'0 0.0
2016-Apr-30 00:33N 37°56' E 023°39'0 0.0
2016-Apr-29 23:34N 37°56' E 023°39'0 0.0
2016-Apr-29 22:34N 37°56' E 023°39'0 0.0
2016-Apr-29 21:34N 37°56' E 023°39'0 0.0
2016-Apr-29 20:34N 37°56' E 023°39'0 0.0
2016-Apr-29 19:34N 37°56' E 023°39'0 0.0
2016-Apr-29 18:33N 37°56' E 023°39'0 0.0
2016-Apr-29 17:34N 37°56' E 023°39'0 0.0
2016-Apr-29 16:34N 37°56' E 023°39'0 0.0
2016-Apr-29 15:33N 37°56' E 023°39'0 0.0
2016-Apr-29 14:34N 37°56' E 023°39'0 0.0
2016-Apr-29 13:34N 37°56' E 023°39'0 0.0
2016-Apr-29 12:33N 37°56' E 023°39'0 0.0
2016-Apr-29 11:34N 37°56' E 023°39'0 0.0
2016-Apr-29 10:34N 37°56' E 023°39'0 0.0
2016-Apr-29 09:34N 37°56' E 023°39'0 0.0
2016-Apr-29 08:34N 37°56' E 023°39'0 0.0
2016-Apr-29 07:33N 37°56' E 023°39'0 0.0
2016-Apr-29 06:33N 37°56' E 023°39'0 0.0
2016-Apr-29 05:34N 37°56' E 023°39'0 0.0
2016-Apr-29 04:33N 37°56' E 023°39'0 0.0
2016-Apr-29 03:33N 37°56' E 023°39'0 0.0
2016-Apr-29 02:33N 37°56' E 023°39'0 0.0
2016-Apr-29 01:34N 37°56' E 023°39'0 0.0
2016-Apr-29 00:34N 37°56' E 023°39'0 0.0
2016-Apr-28 23:34N 37°56' E 023°39'0 0.0
2016-Apr-28 22:34N 37°56' E 023°39'0 0.0
2016-Apr-28 21:34N 37°56' E 023°39'0 0.0
2016-Apr-28 20:33N 37°56' E 023°39'0 0.0
2016-Apr-28 19:34N 37°56' E 023°39'0 0.0
2016-Apr-28 18:33N 37°56' E 023°39'0 0.0
2016-Apr-28 17:34N 37°56' E 023°39'0 0.0
2016-Apr-28 16:34N 37°56' E 023°39'0 0.0
2016-Apr-28 15:34N 37°56' E 023°39'0 0.0
2016-Apr-28 14:34N 37°56' E 023°39'0 0.0
2016-Apr-28 13:33N 37°56' E 023°39'0 0.0
2016-Apr-28 12:34N 37°56' E 023°39'0 0.0
2016-Apr-28 11:34N 37°56' E 023°39'0 0.0
2016-Apr-28 10:33N 37°56' E 023°39'0 0.0
2016-Apr-28 09:33N 37°56' E 023°39'0 0.0
2016-Apr-28 08:34N 37°56' E 023°39'0 0.0
2016-Apr-28 07:33N 37°56' E 023°39'4 4.3
2016-Apr-28 06:34N 37°54' E 023°34'1312.7
2016-Apr-28 05:33N 37°52' E 023°18'1111.0
2016-Apr-28 04:33N 37°54' E 023°04'23 7.5
2016-Apr-28 01:28N 38°07' E 022°40'5510.3
2016-Apr-27 20:11N 38°16' E 021°32'710.8
2016-Apr-27 19:33N 38°15' E 021°23'1110.8
2016-Apr-27 18:32N 38°15' E 021°09'  
Track history (hours):
 
Tides and Currents Weather Stations Pressure Air Temp Water Temp Dewpoint Dewpoint Depression Visibility Wind Speed Wind Dir Waves Ship Positions

My Little Violet

Last reported at 2016-May-03 00:33 UTC. Time now 2016-May-30 18:26 UTC.
Position N 31°02' E 032°19'.
Warning: this ship's position is 27 days out of date.

Length 45 m; draft 2.9 m.

Type: Pleasure craft. MMSI: 319496000.

Date/timePositionNaut miles runAvg speedWind from/ knotsBaromVisibWave heightAir tempDewpointWater temp
2016-May-03 00:33N 31°02' E 032°19'14 3.4
2016-May-02 20:29N 31°15' E 032°19'6 2.0
2016-May-02 17:28N 31°21' E 032°21'3410.7
2016-May-02 14:18N 31°47' E 031°55'1213.1
2016-May-02 13:21N 31°55' E 031°43'50412.3
2016-Apr-30 20:25N 37°22' E 023°58'1112.4
2016-Apr-30 19:33N 37°30' E 023°49'1212.5
2016-Apr-30 18:34N 37°41' E 023°41'1211.9
2016-Apr-30 17:33N 37°52' E 023°38'4 3.9
2016-Apr-30 16:34N 37°56' E 023°39'0 0.0
2016-Apr-30 15:34N 37°56' E 023°39'0 0.0
2016-Apr-30 14:34N 37°56' E 023°39'0 0.0
2016-Apr-30 13:33N 37°56' E 023°39'0 0.0
2016-Apr-30 12:33N 37°56' E 023°39'0 0.0
2016-Apr-30 11:34N 37°56' E 023°39'0 0.0
2016-Apr-30 10:33N 37°56' E 023°39'0 0.0
2016-Apr-30 09:33N 37°56' E 023°39'0 0.0
2016-Apr-30 08:34N 37°56' E 023°39'0 0.0
2016-Apr-30 07:33N 37°56' E 023°39'0 0.0
2016-Apr-30 06:34N 37°56' E 023°39'0 0.0
2016-Apr-30 05:33N 37°56' E 023°39'0 0.0
2016-Apr-30 04:33N 37°56' E 023°39'0 0.0
2016-Apr-30 03:33N 37°56' E 023°39'0 0.0
2016-Apr-30 02:34N 37°56' E 023°39'0 0.0
2016-Apr-30 01:33N 37°56' E 023°39'0 0.0
2016-Apr-30 00:33N 37°56' E 023°39'0 0.0
2016-Apr-29 23:34N 37°56' E 023°39'0 0.0
2016-Apr-29 22:34N 37°56' E 023°39'0 0.0
2016-Apr-29 21:34N 37°56' E 023°39'0 0.0
2016-Apr-29 20:34N 37°56' E 023°39'0 0.0
2016-Apr-29 19:34N 37°56' E 023°39'0 0.0
2016-Apr-29 18:33N 37°56' E 023°39'0 0.0
2016-Apr-29 17:34N 37°56' E 023°39'0 0.0
2016-Apr-29 16:34N 37°56' E 023°39'0 0.0
2016-Apr-29 15:33N 37°56' E 023°39'0 0.0
2016-Apr-29 14:34N 37°56' E 023°39'0 0.0
2016-Apr-29 13:34N 37°56' E 023°39'0 0.0
2016-Apr-29 12:33N 37°56' E 023°39'0 0.0
2016-Apr-29 11:34N 37°56' E 023°39'0 0.0
2016-Apr-29 10:34N 37°56' E 023°39'0 0.0
2016-Apr-29 09:34N 37°56' E 023°39'0 0.0
2016-Apr-29 08:34N 37°56' E 023°39'0 0.0
2016-Apr-29 07:33N 37°56' E 023°39'0 0.0
2016-Apr-29 06:33N 37°56' E 023°39'0 0.0
2016-Apr-29 05:34N 37°56' E 023°39'0 0.0
2016-Apr-29 04:33N 37°56' E 023°39'0 0.0
2016-Apr-29 03:33N 37°56' E 023°39'0 0.0
2016-Apr-29 02:33N 37°56' E 023°39'0 0.0
2016-Apr-29 01:34N 37°56' E 023°39'0 0.0
2016-Apr-29 00:34N 37°56' E 023°39'0 0.0
2016-Apr-28 23:34N 37°56' E 023°39'0 0.0
2016-Apr-28 22:34N 37°56' E 023°39'0 0.0
2016-Apr-28 21:34N 37°56' E 023°39'0 0.0
2016-Apr-28 20:33N 37°56' E 023°39'0 0.0
2016-Apr-28 19:34N 37°56' E 023°39'0 0.0
2016-Apr-28 18:33N 37°56' E 023°39'0 0.0
2016-Apr-28 17:34N 37°56' E 023°39'0 0.0
2016-Apr-28 16:34N 37°56' E 023°39'0 0.0
2016-Apr-28 15:34N 37°56' E 023°39'0 0.0
2016-Apr-28 14:34N 37°56' E 023°39'0 0.0
2016-Apr-28 13:33N 37°56' E 023°39'0 0.0
2016-Apr-28 12:34N 37°56' E 023°39'0 0.0
2016-Apr-28 11:34N 37°56' E 023°39'0 0.0
2016-Apr-28 10:33N 37°56' E 023°39'0 0.0
2016-Apr-28 09:33N 37°56' E 023°39'0 0.0
2016-Apr-28 08:34N 37°56' E 023°39'0 0.0
2016-Apr-28 07:33N 37°56' E 023°39'4 4.3
2016-Apr-28 06:34N 37°54' E 023°34'1312.7
2016-Apr-28 05:33N 37°52' E 023°18'1111.0
2016-Apr-28 04:33N 37°54' E 023°04'23 7.5
2016-Apr-28 01:28N 38°07' E 022°40'5510.3
2016-Apr-27 20:11N 38°16' E 021°32'710.8
2016-Apr-27 19:33N 38°15' E 021°23'1110.8
2016-Apr-27 18:32N 38°15' E 021°09'  

Dump ship's entire track history